sensor_id;sensor_type;location;lat;lon;timestamp;P1;durP1;ratioP1;P2;durP2;ratioP2
24401;SDS011;12539;48.808;11.292;2022-09-09T00:00:12;6.18;;;2.35;;
24401;SDS011;12539;48.808;11.292;2022-09-09T00:02:41;4.80;;;2.70;;
24401;SDS011;12539;48.808;11.292;2022-09-09T00:05:23;5.28;;;2.08;;
24401;SDS011;12539;48.808;11.292;2022-09-09T00:07:58;1.73;;;1.10;;
24401;SDS011;12539;48.808;11.292;2022-09-09T00:10:33;4.68;;;1.83;;
24401;SDS011;12539;48.808;11.292;2022-09-09T00:13:24;4.45;;;1.98;;
24401;SDS011;12539;48.808;11.292;2022-09-09T00:18:46;6.72;;;1.85;;
24401;SDS011;12539;48.808;11.292;2022-09-09T00:21:24;1.08;;;0.98;;
24401;SDS011;12539;48.808;11.292;2022-09-09T00:24:08;1.08;;;0.82;;
24401;SDS011;12539;48.808;11.292;2022-09-09T00:26:40;1.35;;;1.25;;
24401;SDS011;12539;48.808;11.292;2022-09-09T00:29:21;3.15;;;1.33;;
24401;SDS011;12539;48.808;11.292;2022-09-09T00:31:59;2.17;;;1.52;;
24401;SDS011;12539;48.808;11.292;2022-09-09T00:34:36;29.75;;;2.75;;
24401;SDS011;12539;48.808;11.292;2022-09-09T00:37:12;96.13;;;5.82;;
24401;SDS011;12539;48.808;11.292;2022-09-09T00:39:40;47.67;;;2.80;;
24401;SDS011;12539;48.808;11.292;2022-09-09T00:44:36;2.92;;;1.48;;
24401;SDS011;12539;48.808;11.292;2022-09-09T00:57:41;19.55;;;2.55;;
24401;SDS011;12539;48.808;11.292;2022-09-09T01:05:43;18.00;;;3.20;;
24401;SDS011;12539;48.808;11.292;2022-09-09T01:10:51;1.10;;;1.00;;
24401;SDS011;12539;48.808;11.292;2022-09-09T01:13:37;4.80;;;2.65;;
24401;SDS011;12539;48.808;11.292;2022-09-09T01:16:04;0.93;;;0.93;;
24401;SDS011;12539;48.808;11.292;2022-09-09T01:18:40;1.80;;;1.10;;
24401;SDS011;12539;48.808;11.292;2022-09-09T01:26:24;4.20;;;2.45;;
24401;SDS011;12539;48.808;11.292;2022-09-09T01:28:53;3.10;;;2.13;;
24401;SDS011;12539;48.808;11.292;2022-09-09T01:31:26;1.63;;;1.05;;
24401;SDS011;12539;48.808;11.292;2022-09-09T01:33:55;3.67;;;1.80;;
24401;SDS011;12539;48.808;11.292;2022-09-09T01:39:03;2.10;;;1.15;;
24401;SDS011;12539;48.808;11.292;2022-09-09T01:41:29;1.45;;;1.35;;
24401;SDS011;12539;48.808;11.292;2022-09-09T01:43:55;0.57;;;0.57;;
24401;SDS011;12539;48.808;11.292;2022-09-09T01:46:22;2.22;;;1.90;;
24401;SDS011;12539;48.808;11.292;2022-09-09T01:48:49;2.92;;;2.63;;
24401;SDS011;12539;48.808;11.292;2022-09-09T01:51:17;2.50;;;2.30;;
24401;SDS011;12539;48.808;11.292;2022-09-09T01:53:42;1.48;;;1.10;;
24401;SDS011;12539;48.808;11.292;2022-09-09T01:59:17;2.67;;;2.28;;
24401;SDS011;12539;48.808;11.292;2022-09-09T02:07:35;1.30;;;1.20;;
24401;SDS011;12539;48.808;11.292;2022-09-09T02:10:21;6.28;;;3.08;;
24401;SDS011;12539;48.808;11.292;2022-09-09T02:12:48;4.57;;;3.40;;
24401;SDS011;12539;48.808;11.292;2022-09-09T02:15:23;4.43;;;2.92;;
24401;SDS011;12539;48.808;11.292;2022-09-09T02:17:55;2.00;;;1.60;;
24401;SDS011;12539;48.808;11.292;2022-09-09T02:20:24;2.95;;;1.52;;
24401;SDS011;12539;48.808;11.292;2022-09-09T02:22:52;3.83;;;2.20;;
24401;SDS011;12539;48.808;11.292;2022-09-09T02:25:19;2.97;;;2.70;;
24401;SDS011;12539;48.808;11.292;2022-09-09T02:27:49;6.47;;;3.92;;
24401;SDS011;12539;48.808;11.292;2022-09-09T02:30:16;1.83;;;1.65;;
24401;SDS011;12539;48.808;11.292;2022-09-09T02:32:43;1.40;;;1.30;;
24401;SDS011;12539;48.808;11.292;2022-09-09T02:35:13;1.38;;;1.27;;
24401;SDS011;12539;48.808;11.292;2022-09-09T02:37:42;5.50;;;2.90;;
24401;SDS011;12539;48.808;11.292;2022-09-09T02:40:13;4.82;;;3.15;;
24401;SDS011;12539;48.808;11.292;2022-09-09T02:42:43;4.03;;;2.92;;
24401;SDS011;12539;48.808;11.292;2022-09-09T02:45:10;2.05;;;1.83;;
24401;SDS011;12539;48.808;11.292;2022-09-09T02:47:41;4.57;;;3.05;;
24401;SDS011;12539;48.808;11.292;2022-09-09T02:50:34;3.17;;;2.83;;
24401;SDS011;12539;48.808;11.292;2022-09-09T02:53:23;5.47;;;2.58;;
24401;SDS011;12539;48.808;11.292;2022-09-09T02:55:58;6.82;;;4.25;;
24401;SDS011;12539;48.808;11.292;2022-09-09T02:58:25;6.22;;;3.97;;
24401;SDS011;12539;48.808;11.292;2022-09-09T03:00:51;5.85;;;3.65;;
24401;SDS011;12539;48.808;11.292;2022-09-09T03:03:18;4.63;;;2.97;;
24401;SDS011;12539;48.808;11.292;2022-09-09T03:05:45;9.27;;;5.03;;
24401;SDS011;12539;48.808;11.292;2022-09-09T03:08:12;6.35;;;4.70;;
24401;SDS011;12539;48.808;11.292;2022-09-09T03:10:38;8.80;;;4.80;;
24401;SDS011;12539;48.808;11.292;2022-09-09T03:13:04;5.72;;;4.32;;
24401;SDS011;12539;48.808;11.292;2022-09-09T03:15:33;4.47;;;3.45;;
24401;SDS011;12539;48.808;11.292;2022-09-09T03:17:59;9.48;;;5.60;;
24401;SDS011;12539;48.808;11.292;2022-09-09T03:20:25;5.10;;;3.58;;
24401;SDS011;12539;48.808;11.292;2022-09-09T03:22:53;10.35;;;5.10;;
24401;SDS011;12539;48.808;11.292;2022-09-09T03:25:19;7.97;;;2.83;;
24401;SDS011;12539;48.808;11.292;2022-09-09T03:27:45;12.18;;;6.72;;
24401;SDS011;12539;48.808;11.292;2022-09-09T03:30:11;5.53;;;3.00;;
24401;SDS011;12539;48.808;11.292;2022-09-09T03:32:37;10.20;;;5.07;;
24401;SDS011;12539;48.808;11.292;2022-09-09T03:35:03;5.68;;;3.20;;
24401;SDS011;12539;48.808;11.292;2022-09-09T03:37:29;4.50;;;2.55;;
24401;SDS011;12539;48.808;11.292;2022-09-09T03:39:54;12.15;;;6.55;;
24401;SDS011;12539;48.808;11.292;2022-09-09T03:42:20;9.38;;;4.75;;
24401;SDS011;12539;48.808;11.292;2022-09-09T03:44:46;17.05;;;7.13;;
24401;SDS011;12539;48.808;11.292;2022-09-09T03:47:18;14.20;;;7.30;;
24401;SDS011;12539;48.808;11.292;2022-09-09T03:49:45;16.10;;;7.65;;
24401;SDS011;12539;48.808;11.292;2022-09-09T03:52:10;17.77;;;7.90;;
24401;SDS011;12539;48.808;11.292;2022-09-09T03:54:36;19.75;;;8.63;;
24401;SDS011;12539;48.808;11.292;2022-09-09T03:57:02;19.60;;;9.10;;
24401;SDS011;12539;48.808;11.292;2022-09-09T03:59:29;24.90;;;8.48;;
24401;SDS011;12539;48.808;11.292;2022-09-09T04:01:55;16.50;;;7.72;;
24401;SDS011;12539;48.808;11.292;2022-09-09T04:04:22;18.35;;;8.07;;
24401;SDS011;12539;48.808;11.292;2022-09-09T04:06:48;11.10;;;6.25;;
24401;SDS011;12539;48.808;11.292;2022-09-09T04:09:14;14.90;;;6.85;;
24401;SDS011;12539;48.808;11.292;2022-09-09T04:11:39;20.70;;;8.00;;
24401;SDS011;12539;48.808;11.292;2022-09-09T04:14:05;18.02;;;7.30;;
24401;SDS011;12539;48.808;11.292;2022-09-09T04:16:32;21.30;;;8.73;;
24401;SDS011;12539;48.808;11.292;2022-09-09T04:18:58;7.25;;;4.22;;
24401;SDS011;12539;48.808;11.292;2022-09-09T04:21:25;24.88;;;8.48;;
24401;SDS011;12539;48.808;11.292;2022-09-09T04:23:51;17.80;;;8.27;;
24401;SDS011;12539;48.808;11.292;2022-09-09T04:26:16;10.60;;;6.78;;
24401;SDS011;12539;48.808;11.292;2022-09-09T04:28:43;13.48;;;6.53;;
24401;SDS011;12539;48.808;11.292;2022-09-09T04:31:10;10.35;;;4.93;;
24401;SDS011;12539;48.808;11.292;2022-09-09T04:33:49;10.45;;;4.43;;
24401;SDS011;12539;48.808;11.292;2022-09-09T04:36:14;10.15;;;4.28;;
24401;SDS011;12539;48.808;11.292;2022-09-09T04:38:43;6.15;;;4.05;;
24401;SDS011;12539;48.808;11.292;2022-09-09T04:41:09;3.90;;;3.08;;
24401;SDS011;12539;48.808;11.292;2022-09-09T04:43:36;2.88;;;2.42;;
24401;SDS011;12539;48.808;11.292;2022-09-09T04:46:03;4.50;;;2.97;;
24401;SDS011;12539;48.808;11.292;2022-09-09T04:48:29;3.45;;;2.50;;
24401;SDS011;12539;48.808;11.292;2022-09-09T04:51:06;2.83;;;2.17;;
24401;SDS011;12539;48.808;11.292;2022-09-09T04:53:36;2.92;;;2.58;;
24401;SDS011;12539;48.808;11.292;2022-09-09T04:56:07;3.40;;;3.08;;
24401;SDS011;12539;48.808;11.292;2022-09-09T04:58:35;2.03;;;1.75;;
24401;SDS011;12539;48.808;11.292;2022-09-09T05:03:31;4.37;;;2.87;;
24401;SDS011;12539;48.808;11.292;2022-09-09T05:06:04;7.65;;;4.45;;
24401;SDS011;12539;48.808;11.292;2022-09-09T05:08:29;2.00;;;1.75;;
24401;SDS011;12539;48.808;11.292;2022-09-09T05:10:55;1.90;;;1.65;;
24401;SDS011;12539;48.808;11.292;2022-09-09T05:13:21;3.38;;;1.85;;
24401;SDS011;12539;48.808;11.292;2022-09-09T05:15:51;2.75;;;1.60;;
24401;SDS011;12539;48.808;11.292;2022-09-09T05:18:18;2.28;;;1.45;;
24401;SDS011;12539;48.808;11.292;2022-09-09T05:20:43;1.80;;;1.40;;
24401;SDS011;12539;48.808;11.292;2022-09-09T05:23:09;1.70;;;1.45;;
24401;SDS011;12539;48.808;11.292;2022-09-09T05:25:38;2.60;;;1.58;;
24401;SDS011;12539;48.808;11.292;2022-09-09T05:28:05;2.67;;;1.83;;
24401;SDS011;12539;48.808;11.292;2022-09-09T05:30:32;3.88;;;2.10;;
24401;SDS011;12539;48.808;11.292;2022-09-09T05:32:59;3.30;;;2.47;;
24401;SDS011;12539;48.808;11.292;2022-09-09T05:35:25;3.75;;;2.47;;
24401;SDS011;12539;48.808;11.292;2022-09-09T05:37:51;3.15;;;2.50;;
24401;SDS011;12539;48.808;11.292;2022-09-09T05:40:17;5.35;;;2.90;;
24401;SDS011;12539;48.808;11.292;2022-09-09T05:42:43;2.67;;;2.33;;
24401;SDS011;12539;48.808;11.292;2022-09-09T05:45:08;4.55;;;2.90;;
24401;SDS011;12539;48.808;11.292;2022-09-09T05:47:35;3.70;;;2.35;;
24401;SDS011;12539;48.808;11.292;2022-09-09T05:50:02;3.35;;;2.05;;
24401;SDS011;12539;48.808;11.292;2022-09-09T05:52:29;5.43;;;2.70;;
24401;SDS011;12539;48.808;11.292;2022-09-09T05:54:54;5.07;;;3.53;;
24401;SDS011;12539;48.808;11.292;2022-09-09T05:57:21;3.05;;;2.42;;
24401;SDS011;12539;48.808;11.292;2022-09-09T05:59:47;3.78;;;3.20;;
24401;SDS011;12539;48.808;11.292;2022-09-09T06:02:13;4.80;;;3.75;;
24401;SDS011;12539;48.808;11.292;2022-09-09T06:04:39;5.13;;;3.05;;
24401;SDS011;12539;48.808;11.292;2022-09-09T06:07:05;1.88;;;1.55;;
24401;SDS011;12539;48.808;11.292;2022-09-09T06:09:31;4.00;;;2.63;;
24401;SDS011;12539;48.808;11.292;2022-09-09T06:11:56;5.15;;;3.30;;
24401;SDS011;12539;48.808;11.292;2022-09-09T06:14:23;6.72;;;3.92;;
24401;SDS011;12539;48.808;11.292;2022-09-09T06:16:50;3.38;;;1.38;;
24401;SDS011;12539;48.808;11.292;2022-09-09T06:19:16;2.92;;;2.63;;
24401;SDS011;12539;48.808;11.292;2022-09-09T06:21:41;3.60;;;1.85;;
24401;SDS011;12539;48.808;11.292;2022-09-09T06:24:07;3.72;;;2.33;;
24401;SDS011;12539;48.808;11.292;2022-09-09T06:26:34;2.00;;;1.80;;
24401;SDS011;12539;48.808;11.292;2022-09-09T06:29:01;4.47;;;2.72;;
24401;SDS011;12539;48.808;11.292;2022-09-09T06:31:32;2.93;;;2.67;;
24401;SDS011;12539;48.808;11.292;2022-09-09T06:33:59;5.43;;;3.13;;
24401;SDS011;12539;48.808;11.292;2022-09-09T06:38:56;1.63;;;1.40;;
24401;SDS011;12539;48.808;11.292;2022-09-09T06:41:22;5.18;;;2.28;;
24401;SDS011;12539;48.808;11.292;2022-09-09T06:43:51;4.28;;;2.47;;
24401;SDS011;12539;48.808;11.292;2022-09-09T06:46:17;2.15;;;1.48;;
24401;SDS011;12539;48.808;11.292;2022-09-09T06:48:44;5.75;;;3.10;;
24401;SDS011;12539;48.808;11.292;2022-09-09T06:51:18;3.15;;;2.67;;
24401;SDS011;12539;48.808;11.292;2022-09-09T06:53:51;2.35;;;1.50;;
24401;SDS011;12539;48.808;11.292;2022-09-09T06:56:23;3.58;;;2.22;;
24401;SDS011;12539;48.808;11.292;2022-09-09T06:58:51;2.58;;;1.52;;
24401;SDS011;12539;48.808;11.292;2022-09-09T07:01:21;1.63;;;1.40;;
24401;SDS011;12539;48.808;11.292;2022-09-09T07:03:49;2.78;;;1.45;;
24401;SDS011;12539;48.808;11.292;2022-09-09T07:06:16;2.47;;;1.58;;
24401;SDS011;12539;48.808;11.292;2022-09-09T07:08:55;1.45;;;1.23;;
24401;SDS011;12539;48.808;11.292;2022-09-09T07:11:23;1.20;;;1.10;;
24401;SDS011;12539;48.808;11.292;2022-09-09T07:13:54;3.60;;;1.92;;
24401;SDS011;12539;48.808;11.292;2022-09-09T07:16:23;3.88;;;2.42;;
24401;SDS011;12539;48.808;11.292;2022-09-09T07:18:49;2.03;;;1.70;;
24401;SDS011;12539;48.808;11.292;2022-09-09T07:21:16;3.08;;;2.50;;
24401;SDS011;12539;48.808;11.292;2022-09-09T07:23:45;4.13;;;2.30;;
24401;SDS011;12539;48.808;11.292;2022-09-09T07:26:12;2.25;;;1.45;;
24401;SDS011;12539;48.808;11.292;2022-09-09T07:28:39;1.92;;;1.48;;
24401;SDS011;12539;48.808;11.292;2022-09-09T07:31:06;4.28;;;2.95;;
24401;SDS011;12539;48.808;11.292;2022-09-09T07:33:36;1.73;;;1.33;;
24401;SDS011;12539;48.808;11.292;2022-09-09T07:36:24;3.70;;;2.75;;
24401;SDS011;12539;48.808;11.292;2022-09-09T07:38:55;5.72;;;4.53;;
24401;SDS011;12539;48.808;11.292;2022-09-09T07:41:24;4.60;;;3.83;;
24401;SDS011;12539;48.808;11.292;2022-09-09T07:43:52;1.83;;;1.25;;
24401;SDS011;12539;48.808;11.292;2022-09-09T07:46:22;2.45;;;1.67;;
24401;SDS011;12539;48.808;11.292;2022-09-09T07:48:50;4.00;;;2.28;;
24401;SDS011;12539;48.808;11.292;2022-09-09T07:51:19;5.88;;;4.95;;
24401;SDS011;12539;48.808;11.292;2022-09-09T07:53:47;5.45;;;4.55;;
24401;SDS011;12539;48.808;11.292;2022-09-09T07:56:15;5.65;;;3.67;;
24401;SDS011;12539;48.808;11.292;2022-09-09T07:58:42;9.02;;;7.05;;
24401;SDS011;12539;48.808;11.292;2022-09-09T08:01:20;8.57;;;7.47;;
24401;SDS011;12539;48.808;11.292;2022-09-09T08:03:55;5.72;;;4.38;;
24401;SDS011;12539;48.808;11.292;2022-09-09T08:08:56;7.18;;;5.47;;
24401;SDS011;12539;48.808;11.292;2022-09-09T08:11:43;8.32;;;5.70;;
24401;SDS011;12539;48.808;11.292;2022-09-09T08:14:10;5.93;;;4.72;;
24401;SDS011;12539;48.808;11.292;2022-09-09T08:16:38;3.70;;;2.88;;
24401;SDS011;12539;48.808;11.292;2022-09-09T08:19:06;4.38;;;2.80;;
24401;SDS011;12539;48.808;11.292;2022-09-09T08:21:32;4.85;;;3.40;;
24401;SDS011;12539;48.808;11.292;2022-09-09T08:24:01;4.63;;;3.13;;
24401;SDS011;12539;48.808;11.292;2022-09-09T08:26:29;6.78;;;4.40;;
24401;SDS011;12539;48.808;11.292;2022-09-09T08:28:57;4.65;;;2.03;;
24401;SDS011;12539;48.808;11.292;2022-09-09T08:33:58;2.13;;;1.77;;
24401;SDS011;12539;48.808;11.292;2022-09-09T08:36:25;3.47;;;1.90;;
24401;SDS011;12539;48.808;11.292;2022-09-09T08:38:55;4.30;;;2.50;;
24401;SDS011;12539;48.808;11.292;2022-09-09T08:46:46;1.88;;;1.20;;
24401;SDS011;12539;48.808;11.292;2022-09-09T08:55:05;7.55;;;4.55;;
24401;SDS011;12539;48.808;11.292;2022-09-09T08:57:49;5.55;;;4.30;;
24401;SDS011;12539;48.808;11.292;2022-09-09T09:00:19;3.33;;;2.20;;
24401;SDS011;12539;48.808;11.292;2022-09-09T09:02:53;3.40;;;2.78;;
24401;SDS011;12539;48.808;11.292;2022-09-09T09:08:48;2.07;;;1.57;;
24401;SDS011;12539;48.808;11.292;2022-09-09T09:11:23;3.03;;;1.90;;
24401;SDS011;12539;48.808;11.292;2022-09-09T09:16:33;3.75;;;2.03;;
24401;SDS011;12539;48.808;11.292;2022-09-09T09:19:04;2.67;;;1.50;;
24401;SDS011;12539;48.808;11.292;2022-09-09T09:24:01;4.85;;;1.95;;
24401;SDS011;12539;48.808;11.292;2022-09-09T09:26:31;3.13;;;1.17;;
24401;SDS011;12539;48.808;11.292;2022-09-09T09:29:00;3.25;;;1.90;;
24401;SDS011;12539;48.808;11.292;2022-09-09T09:31:37;3.17;;;1.10;;
24401;SDS011;12539;48.808;11.292;2022-09-09T09:34:02;2.15;;;1.40;;
24401;SDS011;12539;48.808;11.292;2022-09-09T09:36:39;3.63;;;1.55;;
24401;SDS011;12539;48.808;11.292;2022-09-09T09:39:23;3.15;;;1.55;;
24401;SDS011;12539;48.808;11.292;2022-09-09T09:41:49;3.55;;;1.60;;
24401;SDS011;12539;48.808;11.292;2022-09-09T09:44:34;2.28;;;1.20;;
24401;SDS011;12539;48.808;11.292;2022-09-09T09:49:51;2.83;;;1.15;;
24401;SDS011;12539;48.808;11.292;2022-09-09T09:52:22;3.10;;;1.50;;
24401;SDS011;12539;48.808;11.292;2022-09-09T09:54:49;4.57;;;1.70;;
24401;SDS011;12539;48.808;11.292;2022-09-09T09:57:17;3.65;;;1.92;;
24401;SDS011;12539;48.808;11.292;2022-09-09T09:59:47;1.67;;;1.30;;
24401;SDS011;12539;48.808;11.292;2022-09-09T10:04:43;2.33;;;1.30;;
24401;SDS011;12539;48.808;11.292;2022-09-09T10:07:17;1.85;;;1.10;;
24401;SDS011;12539;48.808;11.292;2022-09-09T10:09:44;2.75;;;1.67;;
24401;SDS011;12539;48.808;11.292;2022-09-09T10:37:20;2.17;;;0.88;;
24401;SDS011;12539;48.808;11.292;2022-09-09T10:40:02;2.45;;;0.85;;
24401;SDS011;12539;48.808;11.292;2022-09-09T10:42:41;1.10;;;0.70;;
24401;SDS011;12539;48.808;11.292;2022-09-09T10:47:46;1.13;;;0.98;;
24401;SDS011;12539;48.808;11.292;2022-09-09T10:56:08;3.40;;;1.03;;
24401;SDS011;12539;48.808;11.292;2022-09-09T11:01:57;3.38;;;1.90;;
24401;SDS011;12539;48.808;11.292;2022-09-09T11:07:00;2.03;;;1.13;;
24401;SDS011;12539;48.808;11.292;2022-09-09T11:09:32;2.05;;;0.90;;
24401;SDS011;12539;48.808;11.292;2022-09-09T11:12:04;1.52;;;0.93;;
24401;SDS011;12539;48.808;11.292;2022-09-09T11:14:48;4.70;;;1.33;;
24401;SDS011;12539;48.808;11.292;2022-09-09T11:17:20;2.28;;;0.85;;
24401;SDS011;12539;48.808;11.292;2022-09-09T11:19:49;2.25;;;0.70;;
24401;SDS011;12539;48.808;11.292;2022-09-09T11:35:35;3.22;;;1.00;;
24401;SDS011;12539;48.808;11.292;2022-09-09T11:38:25;4.05;;;1.33;;
24401;SDS011;12539;48.808;11.292;2022-09-09T11:40:58;1.98;;;0.90;;
24401;SDS011;12539;48.808;11.292;2022-09-09T11:45:57;2.80;;;0.80;;
24401;SDS011;12539;48.808;11.292;2022-09-09T11:53:48;2.00;;;0.73;;
24401;SDS011;12539;48.808;11.292;2022-09-09T11:56:23;4.25;;;0.98;;
24401;SDS011;12539;48.808;11.292;2022-09-09T11:59:04;3.08;;;1.00;;
24401;SDS011;12539;48.808;11.292;2022-09-09T12:01:42;3.60;;;0.88;;
24401;SDS011;12539;48.808;11.292;2022-09-09T12:04:14;2.05;;;0.70;;
24401;SDS011;12539;48.808;11.292;2022-09-09T12:09:23;3.13;;;1.13;;
24401;SDS011;12539;48.808;11.292;2022-09-09T12:12:06;3.20;;;1.00;;
24401;SDS011;12539;48.808;11.292;2022-09-09T12:17:09;1.52;;;0.95;;
24401;SDS011;12539;48.808;11.292;2022-09-09T12:19:41;1.50;;;1.00;;
24401;SDS011;12539;48.808;11.292;2022-09-09T12:22:21;2.25;;;0.82;;
24401;SDS011;12539;48.808;11.292;2022-09-09T12:24:52;0.75;;;0.60;;
24401;SDS011;12539;48.808;11.292;2022-09-09T12:27:33;3.10;;;1.00;;
24401;SDS011;12539;48.808;11.292;2022-09-09T12:30:11;2.47;;;1.00;;
24401;SDS011;12539;48.808;11.292;2022-09-09T12:32:40;2.90;;;0.80;;
24401;SDS011;12539;48.808;11.292;2022-09-09T12:35:10;1.52;;;0.90;;
24401;SDS011;12539;48.808;11.292;2022-09-09T12:40:21;1.90;;;1.00;;
24401;SDS011;12539;48.808;11.292;2022-09-09T12:42:51;1.98;;;0.60;;
24401;SDS011;12539;48.808;11.292;2022-09-09T12:47:49;1.70;;;0.60;;
24401;SDS011;12539;48.808;11.292;2022-09-09T12:50:20;2.47;;;0.73;;
24401;SDS011;12539;48.808;11.292;2022-09-09T12:52:50;1.77;;;0.75;;
24401;SDS011;12539;48.808;11.292;2022-09-09T12:55:24;2.90;;;0.82;;
24401;SDS011;12539;48.808;11.292;2022-09-09T12:57:55;0.90;;;0.75;;
24401;SDS011;12539;48.808;11.292;2022-09-09T13:00:24;4.68;;;1.23;;
24401;SDS011;12539;48.808;11.292;2022-09-09T13:02:56;1.48;;;1.17;;
24401;SDS011;12539;48.808;11.292;2022-09-09T13:05:27;2.58;;;1.10;;
24401;SDS011;12539;48.808;11.292;2022-09-09T13:08:09;1.65;;;0.73;;
24401;SDS011;12539;48.808;11.292;2022-09-09T13:10:41;2.03;;;1.23;;
24401;SDS011;12539;48.808;11.292;2022-09-09T13:13:19;3.20;;;0.82;;
24401;SDS011;12539;48.808;11.292;2022-09-09T13:15:58;2.45;;;0.90;;
24401;SDS011;12539;48.808;11.292;2022-09-09T13:18:33;0.98;;;0.65;;
24401;SDS011;12539;48.808;11.292;2022-09-09T13:21:00;2.88;;;0.70;;
24401;SDS011;12539;48.808;11.292;2022-09-09T13:23:28;1.48;;;0.60;;
24401;SDS011;12539;48.808;11.292;2022-09-09T13:26:19;2.80;;;1.05;;
24401;SDS011;12539;48.808;11.292;2022-09-09T13:28:47;2.20;;;0.80;;
24401;SDS011;12539;48.808;11.292;2022-09-09T13:31:21;1.58;;;0.65;;
24401;SDS011;12539;48.808;11.292;2022-09-09T13:33:48;0.55;;;0.50;;
24401;SDS011;12539;48.808;11.292;2022-09-09T13:36:14;3.58;;;0.63;;
24401;SDS011;12539;48.808;11.292;2022-09-09T13:41:20;1.80;;;0.73;;
24401;SDS011;12539;48.808;11.292;2022-09-09T13:44:00;1.80;;;0.73;;
24401;SDS011;12539;48.808;11.292;2022-09-09T13:48:57;1.40;;;0.80;;
24401;SDS011;12539;48.808;11.292;2022-09-09T13:54:12;2.75;;;0.82;;
24401;SDS011;12539;48.808;11.292;2022-09-09T13:56:39;1.63;;;0.85;;
24401;SDS011;12539;48.808;11.292;2022-09-09T13:59:09;2.30;;;0.90;;
24401;SDS011;12539;48.808;11.292;2022-09-09T14:01:40;1.90;;;0.65;;
24401;SDS011;12539;48.808;11.292;2022-09-09T14:04:06;0.80;;;0.40;;
24401;SDS011;12539;48.808;11.292;2022-09-09T14:06:33;1.25;;;0.50;;
24401;SDS011;12539;48.808;11.292;2022-09-09T14:09:02;0.70;;;0.70;;
24401;SDS011;12539;48.808;11.292;2022-09-09T14:11:28;3.40;;;0.75;;
24401;SDS011;12539;48.808;11.292;2022-09-09T14:13:54;2.25;;;0.80;;
24401;SDS011;12539;48.808;11.292;2022-09-09T14:16:20;1.58;;;0.52;;
24401;SDS011;12539;48.808;11.292;2022-09-09T14:18:46;1.33;;;0.70;;
24401;SDS011;12539;48.808;11.292;2022-09-09T14:21:13;4.63;;;0.88;;
24401;SDS011;12539;48.808;11.292;2022-09-09T14:23:41;2.80;;;0.52;;
24401;SDS011;12539;48.808;11.292;2022-09-09T14:26:07;4.05;;;0.75;;
24401;SDS011;12539;48.808;11.292;2022-09-09T14:28:34;2.15;;;0.68;;
24401;SDS011;12539;48.808;11.292;2022-09-09T14:31:01;2.83;;;0.60;;
24401;SDS011;12539;48.808;11.292;2022-09-09T14:33:28;3.42;;;0.75;;
24401;SDS011;12539;48.808;11.292;2022-09-09T14:35:58;2.42;;;0.80;;
24401;SDS011;12539;48.808;11.292;2022-09-09T14:38:28;2.08;;;0.70;;
24401;SDS011;12539;48.808;11.292;2022-09-09T14:40:55;2.55;;;0.85;;
24401;SDS011;12539;48.808;11.292;2022-09-09T14:43:21;1.05;;;0.50;;
24401;SDS011;12539;48.808;11.292;2022-09-09T14:45:47;3.13;;;0.70;;
24401;SDS011;12539;48.808;11.292;2022-09-09T14:48:13;1.38;;;0.50;;
24401;SDS011;12539;48.808;11.292;2022-09-09T14:50:40;1.50;;;0.70;;
24401;SDS011;12539;48.808;11.292;2022-09-09T14:53:06;0.77;;;0.60;;
24401;SDS011;12539;48.808;11.292;2022-09-09T14:55:32;2.75;;;0.82;;
24401;SDS011;12539;48.808;11.292;2022-09-09T14:57:58;2.83;;;0.65;;
24401;SDS011;12539;48.808;11.292;2022-09-09T15:00:23;1.60;;;0.60;;
24401;SDS011;12539;48.808;11.292;2022-09-09T15:02:51;1.88;;;0.60;;
24401;SDS011;12539;48.808;11.292;2022-09-09T15:05:20;4.63;;;0.80;;
24401;SDS011;12539;48.808;11.292;2022-09-09T15:07:46;1.65;;;0.60;;
24401;SDS011;12539;48.808;11.292;2022-09-09T15:10:13;1.88;;;0.85;;
24401;SDS011;12539;48.808;11.292;2022-09-09T15:12:39;4.05;;;0.77;;
24401;SDS011;12539;48.808;11.292;2022-09-09T15:15:07;5.63;;;1.13;;
24401;SDS011;12539;48.808;11.292;2022-09-09T15:17:33;1.33;;;0.68;;
24401;SDS011;12539;48.808;11.292;2022-09-09T15:19:59;4.97;;;1.05;;
24401;SDS011;12539;48.808;11.292;2022-09-09T15:22:25;1.48;;;0.63;;
24401;SDS011;12539;48.808;11.292;2022-09-09T15:24:50;1.42;;;0.70;;
24401;SDS011;12539;48.808;11.292;2022-09-09T15:27:16;1.08;;;0.50;;
24401;SDS011;12539;48.808;11.292;2022-09-09T15:29:43;2.92;;;0.63;;
24401;SDS011;12539;48.808;11.292;2022-09-09T15:32:09;2.42;;;0.60;;
24401;SDS011;12539;48.808;11.292;2022-09-09T15:34:35;2.40;;;0.63;;
24401;SDS011;12539;48.808;11.292;2022-09-09T15:37:00;0.90;;;0.50;;
24401;SDS011;12539;48.808;11.292;2022-09-09T15:39:26;1.77;;;0.60;;
24401;SDS011;12539;48.808;11.292;2022-09-09T15:41:52;1.25;;;0.57;;
24401;SDS011;12539;48.808;11.292;2022-09-09T15:44:18;1.88;;;0.60;;
24401;SDS011;12539;48.808;11.292;2022-09-09T15:46:50;3.08;;;1.00;;
24401;SDS011;12539;48.808;11.292;2022-09-09T15:49:24;1.70;;;0.70;;
24401;SDS011;12539;48.808;11.292;2022-09-09T15:51:52;1.73;;;0.85;;
24401;SDS011;12539;48.808;11.292;2022-09-09T15:54:19;1.88;;;0.45;;
24401;SDS011;12539;48.808;11.292;2022-09-09T15:56:49;1.15;;;0.75;;
24401;SDS011;12539;48.808;11.292;2022-09-09T15:59:17;1.50;;;0.60;;
24401;SDS011;12539;48.808;11.292;2022-09-09T16:01:43;1.17;;;0.70;;
24401;SDS011;12539;48.808;11.292;2022-09-09T16:04:09;1.80;;;0.95;;
24401;SDS011;12539;48.808;11.292;2022-09-09T16:06:35;0.80;;;0.40;;
24401;SDS011;12539;48.808;11.292;2022-09-09T16:09:02;1.67;;;0.40;;
24401;SDS011;12539;48.808;11.292;2022-09-09T16:11:31;1.85;;;0.55;;
24401;SDS011;12539;48.808;11.292;2022-09-09T16:14:02;1.63;;;0.65;;
24401;SDS011;12539;48.808;11.292;2022-09-09T16:16:28;1.25;;;0.55;;
24401;SDS011;12539;48.808;11.292;2022-09-09T16:19:11;2.03;;;0.47;;
24401;SDS011;12539;48.808;11.292;2022-09-09T16:21:44;0.43;;;0.30;;
24401;SDS011;12539;48.808;11.292;2022-09-09T16:24:13;2.72;;;0.70;;
24401;SDS011;12539;48.808;11.292;2022-09-09T16:26:41;3.72;;;1.05;;
24401;SDS011;12539;48.808;11.292;2022-09-09T16:29:10;0.82;;;0.52;;
24401;SDS011;12539;48.808;11.292;2022-09-09T16:31:39;1.67;;;0.60;;
24401;SDS011;12539;48.808;11.292;2022-09-09T16:34:05;1.73;;;0.38;;
24401;SDS011;12539;48.808;11.292;2022-09-09T16:36:32;0.55;;;0.50;;
24401;SDS011;12539;48.808;11.292;2022-09-09T16:39:00;1.45;;;0.55;;
24401;SDS011;12539;48.808;11.292;2022-09-09T16:41:31;2.55;;;0.80;;
24401;SDS011;12539;48.808;11.292;2022-09-09T16:43:58;1.98;;;0.70;;
24401;SDS011;12539;48.808;11.292;2022-09-09T16:46:26;1.88;;;0.63;;
24401;SDS011;12539;48.808;11.292;2022-09-09T16:48:53;3.28;;;0.90;;
24401;SDS011;12539;48.808;11.292;2022-09-09T16:51:22;15.15;;;2.75;;
24401;SDS011;12539;48.808;11.292;2022-09-09T16:53:49;4.53;;;0.80;;
24401;SDS011;12539;48.808;11.292;2022-09-09T16:56:16;5.55;;;1.48;;
24401;SDS011;12539;48.808;11.292;2022-09-09T16:58:50;0.75;;;0.50;;
24401;SDS011;12539;48.808;11.292;2022-09-09T17:01:23;3.70;;;0.90;;
24401;SDS011;12539;48.808;11.292;2022-09-09T17:03:57;1.50;;;0.90;;
24401;SDS011;12539;48.808;11.292;2022-09-09T17:06:26;2.17;;;0.70;;
24401;SDS011;12539;48.808;11.292;2022-09-09T17:08:59;1.35;;;0.57;;
24401;SDS011;12539;48.808;11.292;2022-09-09T17:11:28;2.80;;;0.85;;
24401;SDS011;12539;48.808;11.292;2022-09-09T17:13:55;2.92;;;0.70;;
24401;SDS011;12539;48.808;11.292;2022-09-09T17:16:23;2.42;;;0.52;;
24401;SDS011;12539;48.808;11.292;2022-09-09T17:18:52;1.80;;;0.50;;
24401;SDS011;12539;48.808;11.292;2022-09-09T17:21:20;0.70;;;0.50;;